KJLN

Joplin Regional Airport

Joplin, Missouri, USA
KJLN 231933Z 2320/2418 01012G20KT P6SM SCT080 FM232300 01004KT P6SM SCT130
Issued Valid From Valid To
Apr-23 @ 19:33 UTC
(3 hours ago)
Apr-23 @ 20:00 UTC
(3 hours ago)
Apr-24 @ 18:00 UTC
(in 19 hours)
Apr-23 @ 20:00 to Apr-23 @ 23:00
KJLN 231933Z 2320/2418 01012G20KT P6SM SCT080
Wind Visibility Clouds
10° at 12 knots
 Gusting to 20 knots
Greater than 6 miles
  • Scattered at 8,000' AGL
From Apr-23 @ 23:00 to Apr-24 @ 18:00
FM232300 01004KT P6SM SCT130
Wind Visibility Clouds
10° at 4 knots Greater than 6 miles
  • Scattered at 13,000' AGL
KJLN 231933Z 2320/2418 01012G20KT P6SM SCT080 FM232300 01004KT P6SM SCT130
Issued Apr-23 @ 19:33 UTC
(3 hours ago)
Valid From Apr-23 @ 20:00 UTC
(3 hours ago)
Valid To Apr-24 @ 18:00 UTC
(in 19 hours)
Apr-23 @ 20:00 - Apr-23 @ 23:00
Wind Visibility
10° at 12 knots
 Gusting to 20 knots
Greater than 6 miles
Clouds
  • Scattered at 8,000' AGL
From Apr-23 @ 23:00 - Apr-24 @ 18:00
Wind Visibility
10° at 4 knots Greater than 6 miles
Clouds
  • Scattered at 13,000' AGL